createdAt,value
2023-08-15T04:23:45.476Z,18.60
2023-08-15T04:26:15.263Z,18.90
2023-08-15T04:28:55.584Z,19.50
2023-08-15T04:31:25.286Z,20.00
2023-08-15T04:34:08.042Z,20.50
2023-08-15T04:36:36.339Z,20.90
2023-08-15T04:39:21.720Z,21.30
2023-08-15T04:41:51.741Z,21.90
2023-08-15T04:44:36.703Z,22.40
2023-08-15T04:47:09.052Z,22.70
2023-08-15T04:49:50.120Z,23.00
2023-08-15T04:52:45.003Z,23.20
2023-08-15T04:55:48.133Z,23.50
2023-08-15T04:58:15.754Z,23.70
2023-08-15T05:00:57.318Z,23.90
2023-08-15T05:03:31.413Z,24.50
2023-08-15T05:06:05.565Z,25.00
2023-08-15T05:08:44.765Z,25.80
2023-08-15T05:11:28.848Z,26.30
2023-08-15T05:14:16.471Z,26.80
2023-08-15T05:17:12.426Z,27.10
2023-08-15T05:20:22.005Z,27.20
2023-08-15T05:23:12.248Z,27.30
2023-08-15T05:26:05.295Z,27.90
2023-08-15T05:28:44.377Z,28.00
2023-08-15T05:31:37.405Z,28.30
2023-08-15T05:34:54.427Z,28.70
2023-08-15T05:38:09.114Z,29.40
2023-08-15T05:40:41.546Z,29.70
2023-08-15T05:43:51.044Z,29.50
2023-08-15T05:47:00.467Z,30.20
2023-08-15T05:50:00.781Z,30.70
2023-08-15T05:53:29.553Z,31.20
2023-08-15T05:59:29.428Z,30.90
2023-08-15T05:59:51.754Z,29.90
2023-08-15T06:03:04.721Z,28.70
2023-08-15T06:12:16.709Z,25.80
2023-08-15T06:22:21.449Z,27.60
2023-08-15T06:25:27.398Z,29.30
2023-08-15T06:29:56.899Z,30.30
2023-08-15T06:32:12.765Z,31.30
2023-08-15T06:38:46.801Z,32.00
2023-08-15T06:42:08.444Z,32.20
2023-08-15T06:45:38.949Z,32.40
2023-08-15T06:51:55.387Z,33.20
2023-08-15T06:55:36.596Z,33.40
2023-08-15T07:06:51.859Z,34.90
2023-08-15T07:20:33.242Z,35.40
2023-08-15T07:23:49.504Z,34.90
2023-08-15T07:27:38.719Z,34.90
2023-08-15T07:30:55.498Z,34.60
2023-08-15T07:34:00.010Z,33.10
2023-08-15T07:37:13.848Z,32.20
2023-08-15T07:47:55.749Z,30.80
2023-08-15T07:50:54.149Z,30.20
2023-08-15T07:53:46.506Z,29.10
2023-08-15T07:56:40.720Z,27.80
2023-08-15T07:59:18.224Z,26.50
2023-08-15T07:59:56.799Z,30.60
2023-08-15T08:01:55.450Z,25.20
2023-08-15T08:04:31.790Z,24.20
2023-08-15T08:07:56.932Z,23.50
2023-08-15T08:14:31.728Z,22.50
2023-08-15T08:40:55.895Z,22.50
2023-08-15T08:43:47.222Z,22.80
2023-08-15T08:46:26.050Z,23.20
2023-08-15T08:49:32.721Z,23.80
2023-08-15T08:52:21.261Z,24.20
2023-08-15T09:01:44.986Z,26.30
2023-08-15T09:04:37.734Z,26.50
2023-08-15T09:07:14.461Z,27.60
2023-08-15T09:13:55.768Z,28.40
2023-08-15T09:16:42.730Z,28.50
2023-08-15T09:19:27.165Z,28.50
2023-08-15T09:22:15.194Z,28.80
2023-08-15T09:24:54.934Z,28.90
2023-08-15T09:27:30.358Z,29.40
2023-08-15T09:30:18.611Z,29.50
2023-08-15T09:33:10.351Z,30.00
2023-08-15T09:36:42.868Z,30.00
2023-08-15T09:40:01.329Z,30.10
2023-08-15T09:42:55.468Z,30.20
2023-08-15T09:45:29.320Z,30.50
2023-08-15T09:48:34.005Z,30.50
2023-08-15T09:51:15.616Z,30.70
2023-08-15T09:54:04.056Z,30.80
2023-08-15T10:03:26.918Z,31.10
2023-08-15T10:06:23.234Z,31.40
2023-08-15T10:19:03.925Z,31.10
2023-08-15T10:21:59.451Z,31.10
2023-08-15T10:25:04.096Z,31.30
2023-08-15T10:28:25.807Z,32.10
2023-08-15T10:31:20.913Z,32.20
2023-08-15T10:34:17.061Z,32.00
2023-08-15T10:37:37.207Z,31.50
2023-08-15T10:44:41.458Z,31.80
2023-08-15T10:47:41.705Z,32.10
2023-08-15T10:51:06.179Z,31.90
2023-08-15T11:00:39.462Z,32.40
2023-08-15T11:03:24.762Z,33.50
2023-08-15T11:06:12.017Z,32.10
2023-08-15T11:06:47.847Z,34.10
2023-08-15T11:09:42.157Z,34.10
2023-08-15T11:12:25.674Z,34.20
2023-08-15T11:14:58.027Z,33.70
2023-08-15T11:17:35.431Z,32.70
2023-08-15T11:20:13.686Z,32.20
2023-08-15T11:23:04.045Z,32.50
2023-08-15T11:26:06.325Z,32.70
2023-08-15T11:28:41.863Z,32.90
2023-08-15T11:31:44.845Z,33.10
2023-08-15T11:34:57.082Z,32.80
2023-08-15T11:40:48.308Z,32.60
2023-08-15T11:47:00.622Z,32.60
2023-08-15T11:50:38.002Z,32.60
2023-08-15T11:53:55.981Z,32.90
2023-08-15T11:59:41.733Z,33.00
2023-08-15T12:02:27.893Z,32.20
2023-08-15T12:05:36.886Z,33.00
2023-08-15T12:05:40.399Z,32.60
2023-08-15T12:08:36.647Z,32.80
2023-08-15T12:11:20.226Z,32.80
2023-08-15T12:14:11.049Z,32.90
2023-08-15T12:16:50.737Z,33.20
2023-08-15T12:19:37.577Z,32.90
2023-08-15T12:22:34.268Z,32.80
2023-08-15T12:25:21.601Z,32.80
2023-08-15T12:28:04.217Z,32.70
2023-08-15T12:30:37.681Z,32.50
2023-08-15T12:35:59.809Z,32.80
2023-08-15T12:38:32.952Z,32.80
2023-08-15T12:41:12.115Z,32.70
2023-08-15T12:43:49.020Z,32.60
2023-08-15T12:46:20.778Z,32.40
2023-08-15T12:49:14.121Z,31.80
2023-08-15T12:51:47.209Z,31.90
2023-08-15T12:54:17.906Z,32.20
2023-08-15T12:56:54.757Z,32.40
2023-08-15T12:59:24.510Z,32.40
2023-08-15T13:01:54.125Z,31.70
2023-08-15T13:04:27.472Z,31.10
2023-08-15T13:07:01.737Z,31.20
2023-08-15T13:09:36.432Z,31.40
2023-08-15T13:12:06.580Z,30.90
2023-08-15T13:14:55.599Z,30.60
2023-08-15T13:17:30.471Z,30.80
2023-08-15T13:20:01.603Z,30.40
2023-08-15T13:22:53.078Z,30.20
2023-08-15T13:25:45.045Z,30.40
2023-08-15T13:28:26.037Z,30.40
2023-08-15T13:30:58.650Z,30.50
2023-08-15T13:33:42.906Z,30.80
2023-08-15T13:39:21.169Z,30.90
2023-08-15T13:41:53.666Z,30.80
2023-08-15T13:44:37.699Z,30.90
2023-08-15T13:47:15.780Z,31.00
2023-08-15T13:49:52.118Z,31.10
2023-08-15T13:52:41.696Z,31.00
2023-08-15T13:55:14.324Z,31.20
2023-08-15T13:57:43.584Z,30.60
2023-08-15T14:00:15.906Z,30.20
2023-08-15T14:02:48.166Z,30.10
2023-08-15T14:05:21.169Z,30.30
2023-08-15T14:08:07.144Z,30.60
2023-08-15T14:17:40.946Z,30.20
2023-08-15T14:35:28.646Z,30.40
2023-08-15T15:25:35.079Z,28.30
2023-08-15T15:28:13.881Z,28.30
2023-08-15T15:30:53.780Z,28.20
2023-08-15T15:33:50.646Z,28.10
2023-08-15T15:36:32.204Z,28.00
2023-08-15T15:39:11.276Z,27.90
2023-08-15T15:41:50.414Z,27.90
2023-08-15T15:44:45.823Z,28.00
2023-08-15T15:53:23.096Z,27.80
2023-08-15T15:56:09.872Z,27.70
2023-08-15T15:59:09.549Z,27.50
2023-08-15T16:01:45.538Z,27.50
2023-08-15T16:04:25.040Z,27.30
2023-08-15T16:06:55.956Z,27.30
2023-08-15T16:09:22.890Z,27.20
2023-08-15T16:11:52.519Z,27.10
2023-08-15T16:14:19.354Z,27.00
2023-08-15T16:16:47.435Z,26.70
2023-08-15T16:19:14.745Z,26.40
2023-08-15T16:21:42.442Z,26.20
2023-08-15T16:24:11.970Z,25.80
2023-08-15T16:26:56.970Z,25.30
2023-08-15T16:29:50.633Z,24.60
2023-08-15T16:32:25.164Z,24.00
2023-08-15T16:35:01.039Z,23.70
2023-08-15T16:40:50.327Z,23.30
2023-08-15T16:44:51.454Z,23.00
2023-08-15T16:54:06.674Z,22.60
2023-08-15T16:56:58.325Z,22.70
2023-08-15T17:10:39.970Z,22.80
2023-08-15T17:13:24.972Z,22.60
2023-08-15T17:16:04.297Z,22.50
2023-08-15T17:18:48.772Z,22.40
2023-08-15T17:21:38.859Z,22.40
2023-08-15T17:24:14.290Z,22.30
2023-08-15T17:26:59.682Z,22.40
2023-08-15T17:29:42.783Z,22.50
2023-08-15T17:32:34.929Z,22.40
2023-08-15T17:35:22.867Z,22.50
2023-08-15T17:37:50.407Z,22.40
2023-08-15T17:40:33.720Z,22.30
2023-08-15T17:43:01.723Z,22.40
2023-08-15T17:45:35.834Z,22.40
2023-08-15T17:48:14.125Z,22.40
2023-08-15T17:51:07.596Z,22.40
2023-08-15T17:54:06.171Z,22.40
2023-08-15T17:56:43.870Z,22.40
2023-08-15T17:59:29.102Z,22.30
2023-08-15T18:02:18.177Z,22.30
2023-08-15T18:04:56.092Z,22.40
2023-08-15T18:07:28.408Z,22.40
2023-08-15T18:09:55.982Z,22.50
2023-08-15T18:12:30.856Z,22.60
2023-08-15T18:14:58.134Z,22.50
2023-08-15T18:17:27.507Z,22.40
2023-08-15T18:19:55.546Z,22.40
2023-08-15T18:22:23.417Z,22.50
2023-08-15T18:24:53.807Z,22.40
2023-08-15T18:27:21.200Z,22.30
2023-08-15T18:29:50.534Z,22.20
2023-08-15T18:32:17.754Z,22.10
2023-08-15T18:34:44.745Z,22.00
2023-08-15T18:37:11.961Z,22.00
2023-08-15T18:39:39.071Z,22.00
2023-08-15T18:42:06.233Z,22.00
2023-08-15T18:44:33.329Z,22.00
2023-08-15T18:47:05.625Z,22.00
2023-08-15T18:49:33.316Z,21.90
2023-08-15T18:52:00.445Z,21.90
2023-08-15T18:54:32.592Z,21.90
2023-08-15T18:56:59.501Z,21.90
2023-08-15T18:59:29.263Z,21.90
2023-08-15T19:01:56.424Z,21.80
2023-08-15T19:04:23.536Z,21.80
2023-08-15T19:06:50.568Z,21.80
2023-08-15T19:09:17.772Z,21.70
2023-08-15T19:11:45.276Z,21.60
2023-08-15T19:14:17.151Z,21.60
2023-08-15T19:16:49.473Z,21.50
2023-08-15T19:19:21.813Z,21.50
2023-08-15T19:21:53.845Z,21.60
2023-08-15T19:24:25.229Z,21.60
2023-08-15T19:26:54.838Z,21.60
2023-08-15T19:29:22.173Z,21.70
2023-08-15T19:31:52.662Z,21.70
2023-08-15T19:34:22.927Z,21.60
2023-08-15T19:36:52.593Z,21.60
2023-08-15T19:39:25.084Z,21.70
2023-08-15T19:41:52.499Z,21.70
2023-08-15T19:44:21.216Z,21.60
2023-08-15T19:46:50.786Z,21.60
2023-08-15T19:49:20.362Z,21.60
2023-08-15T19:51:47.624Z,21.60
2023-08-15T19:54:18.194Z,21.60
2023-08-15T19:56:46.707Z,21.60
2023-08-15T19:59:14.527Z,21.60
2023-08-15T20:01:46.226Z,21.60
2023-08-15T20:04:13.632Z,21.50
2023-08-15T20:06:43.416Z,21.50
2023-08-15T20:10:09.672Z,21.40
2023-08-15T20:12:44.215Z,21.50
2023-08-15T20:15:20.667Z,21.50
2023-08-15T20:17:51.467Z,21.40
2023-08-15T20:20:19.245Z,21.40
2023-08-15T20:26:08.452Z,21.40
2023-08-15T20:28:41.629Z,21.40
2023-08-15T20:31:12.385Z,21.40
2023-08-15T20:33:44.499Z,21.40
2023-08-15T20:36:35.528Z,21.40
2023-08-15T20:39:08.907Z,21.30
2023-08-15T20:41:41.607Z,21.20
2023-08-15T20:44:11.316Z,21.20
2023-08-15T20:46:41.968Z,21.20
2023-08-15T20:49:10.515Z,21.30
2023-08-15T20:51:40.126Z,21.20
2023-08-15T20:54:11.969Z,21.20
2023-08-15T20:56:44.632Z,21.10
2023-08-15T20:59:12.144Z,21.00
2023-08-15T21:01:41.876Z,20.80
2023-08-15T21:04:14.424Z,20.70
2023-08-15T21:06:49.928Z,20.70
2023-08-15T21:09:17.277Z,20.70
2023-08-15T21:11:49.928Z,20.70
2023-08-15T21:14:19.143Z,20.60
2023-08-15T21:16:48.829Z,20.60
2023-08-15T21:19:19.581Z,20.60
2023-08-15T21:21:49.770Z,20.60
2023-08-15T21:24:17.685Z,20.60
2023-08-15T21:26:47.606Z,20.60
2023-08-15T21:29:14.869Z,20.60
2023-08-15T21:31:48.073Z,20.60
2023-08-15T21:34:22.120Z,20.50
2023-08-15T21:37:14.845Z,20.60
2023-08-15T21:40:09.468Z,20.60
2023-08-15T21:42:58.538Z,20.60
2023-08-15T21:46:05.286Z,20.60
2023-08-15T21:48:53.143Z,20.60
2023-08-15T21:51:46.668Z,20.70
2023-08-15T21:55:06.651Z,20.70
2023-08-15T21:58:07.271Z,20.70
2023-08-15T22:01:33.879Z,20.70
2023-08-15T22:04:38.903Z,20.70
